createdAt,value
2023-01-18T00:06:27.902Z,30.65
2023-01-18T00:21:29.889Z,29.45
2023-01-18T00:36:32.175Z,30.73
2023-01-18T00:51:34.092Z,28.45
2023-01-18T01:06:45.905Z,29.33
2023-01-18T01:22:06.671Z,29.38
2023-01-18T01:37:08.619Z,27.52
2023-01-18T01:52:14.932Z,28.35
2023-01-18T02:07:16.859Z,28.15
2023-01-18T02:22:24.620Z,28.90
2023-01-18T02:37:32.738Z,28.37
2023-01-18T02:52:42.362Z,31.80
2023-01-18T03:08:04.826Z,28.17
2023-01-18T03:23:33.050Z,30.17
2023-01-18T03:38:36.541Z,31.67
2023-01-18T03:54:02.003Z,33.25
2023-01-18T04:09:04.520Z,34.65
2023-01-18T04:24:06.805Z,36.85
2023-01-18T04:39:13.193Z,36.88
2023-01-18T04:54:18.093Z,26.80
2023-01-18T05:09:20.160Z,28.73
2023-01-18T05:24:22.147Z,33.88
2023-01-18T05:39:24.038Z,35.65
2023-01-18T05:54:25.993Z,34.30
2023-01-18T06:09:30.108Z,32.80
2023-01-18T06:24:32.646Z,38.50
2023-01-18T06:39:35.804Z,31.85
2023-01-18T06:54:37.731Z,28.95
2023-01-18T07:09:39.694Z,27.70
2023-01-18T07:24:41.621Z,25.00
2023-01-18T07:39:43.652Z,21.15
2023-01-18T07:54:45.779Z,24.20
2023-01-18T08:09:47.698Z,19.77
2023-01-18T08:24:49.692Z,17.63
2023-01-18T08:39:51.603Z,19.10
2023-01-18T08:54:53.535Z,21.92
2023-01-18T09:09:55.867Z,21.73
2023-01-18T09:24:57.810Z,22.63
2023-01-18T09:40:00.517Z,22.42
2023-01-18T09:55:39.792Z,23.75
2023-01-18T10:11:07.621Z,22.67
2023-01-18T10:26:23.829Z,22.42
2023-01-18T10:41:33.197Z,24.00
2023-01-18T11:11:55.737Z,25.45
2023-01-18T11:27:01.893Z,22.08
2023-01-18T11:42:32.858Z,26.83
2023-01-18T11:57:34.970Z,31.27
2023-01-18T12:13:21.955Z,23.75
2023-01-18T12:28:36.092Z,25.43
2023-01-18T12:44:18.616Z,26.02
2023-01-18T12:59:32.869Z,24.98
2023-01-18T13:15:07.917Z,23.33
2023-01-18T13:30:16.983Z,27.27
2023-01-18T13:45:28.056Z,29.95
2023-01-18T14:00:38.069Z,30.52
2023-01-18T14:15:52.559Z,29.05
2023-01-18T14:30:58.675Z,26.00
2023-01-18T14:46:08.568Z,25.90
2023-01-18T15:01:33.547Z,28.60
2023-01-18T15:16:36.087Z,26.83
2023-01-18T15:31:46.750Z,30.52
2023-01-18T15:46:49.247Z,23.83
2023-01-18T16:02:25.491Z,27.40
2023-01-18T16:17:28.115Z,25.85
2023-01-18T16:32:33.303Z,33.30
2023-01-18T16:47:35.242Z,37.60
2023-01-18T17:02:37.262Z,42.70
2023-01-18T17:17:40.480Z,42.03
2023-01-18T17:32:42.494Z,41.97
2023-01-18T17:47:44.662Z,43.45
2023-01-18T18:02:46.732Z,36.72
2023-01-18T18:17:49.000Z,35.42
2023-01-18T18:32:50.929Z,35.08
2023-01-18T18:47:52.934Z,43.15
2023-01-18T19:03:02.923Z,48.92
2023-01-18T19:18:05.102Z,51.60
2023-01-18T19:33:07.497Z,48.10
2023-01-18T19:48:09.774Z,52.22
2023-01-18T20:03:13.745Z,46.30
2023-01-18T20:18:15.777Z,44.40
2023-01-18T20:33:18.608Z,39.97
2023-01-18T20:48:20.652Z,43.53
2023-01-18T21:03:22.740Z,45.72
2023-01-18T21:18:25.469Z,49.90
2023-01-18T21:33:28.073Z,39.42
2023-01-18T21:48:31.842Z,49.45
2023-01-18T22:03:33.819Z,42.67
2023-01-18T22:18:35.783Z,37.58
2023-01-18T22:33:37.809Z,33.53
2023-01-18T22:48:40.759Z,34.85
2023-01-18T23:03:42.975Z,38.53
2023-01-18T23:18:44.960Z,48.00
2023-01-18T23:33:46.893Z,41.60
2023-01-18T23:49:07.314Z,33.90
